sensor_id;sensor_type;location;lat;lon;timestamp;pressure;altitude;pressure_sealevel;temperature;humidity
77793;BME280;66983;51.438;5.438;2023-05-07T00:01:16;101474.84;;;15.65;76.56
77793;BME280;66983;51.438;5.438;2023-05-07T00:03:42;101481.97;;;15.66;77.22
77793;BME280;66983;51.438;5.438;2023-05-07T00:06:07;101485.66;;;15.64;77.38
77793;BME280;66983;51.438;5.438;2023-05-07T00:08:33;101472.31;;;15.62;77.68
77793;BME280;66983;51.438;5.438;2023-05-07T00:10:58;101475.78;;;15.64;77.60
77793;BME280;66983;51.438;5.438;2023-05-07T00:13:24;101477.53;;;15.65;78.21
77793;BME280;66983;51.438;5.438;2023-05-07T00:15:50;101471.34;;;15.63;78.52
77793;BME280;66983;51.438;5.438;2023-05-07T00:18:15;101469.47;;;15.65;78.09
77793;BME280;66983;51.438;5.438;2023-05-07T00:20:41;101471.22;;;15.66;78.46
77793;BME280;66983;51.438;5.438;2023-05-07T00:23:06;101464.81;;;15.69;78.16
77793;BME280;66983;51.438;5.438;2023-05-07T00:25:32;101464.88;;;15.67;78.88
77793;BME280;66983;51.438;5.438;2023-05-07T00:27:57;101471.34;;;15.63;78.71
77793;BME280;66983;51.438;5.438;2023-05-07T00:30:29;101466.94;;;15.62;79.10
77793;BME280;66983;51.438;5.438;2023-05-07T00:32:54;101464.00;;;15.67;79.06
77793;BME280;66983;51.438;5.438;2023-05-07T00:35:20;101466.69;;;15.67;78.73
77793;BME280;66983;51.438;5.438;2023-05-07T00:37:46;101461.25;;;15.68;78.36
77793;BME280;66983;51.438;5.438;2023-05-07T00:40:11;101461.31;;;15.67;79.88
77793;BME280;66983;51.438;5.438;2023-05-07T00:42:37;101454.06;;;15.69;78.87
77793;BME280;66983;51.438;5.438;2023-05-07T00:45:03;101454.94;;;15.69;79.52
77793;BME280;66983;51.438;5.438;2023-05-07T00:47:28;101453.19;;;15.68;78.83
77793;BME280;66983;51.438;5.438;2023-05-07T00:49:54;101448.84;;;15.66;79.07
77793;BME280;66983;51.438;5.438;2023-05-07T00:52:23;101452.41;;;15.66;79.23
77793;BME280;66983;51.438;5.438;2023-05-07T00:54:51;101451.59;;;15.64;79.54
77793;BME280;66983;51.438;5.438;2023-05-07T00:57:17;101453.34;;;15.65;80.08
77793;BME280;66983;51.438;5.438;2023-05-07T00:59:43;101448.91;;;15.64;78.93
77793;BME280;66983;51.438;5.438;2023-05-07T01:02:10;101455.22;;;15.63;79.51
77793;BME280;66983;51.438;5.438;2023-05-07T01:04:36;101451.28;;;15.70;79.16
77793;BME280;66983;51.438;5.438;2023-05-07T01:07:02;101458.41;;;15.71;79.17
77793;BME280;66983;51.438;5.438;2023-05-07T01:09:29;101460.16;;;15.72;78.80
77793;BME280;66983;51.438;5.438;2023-05-07T01:11:56;101460.00;;;15.75;79.11
77793;BME280;66983;51.438;5.438;2023-05-07T01:14:23;101459.28;;;15.72;79.44
77793;BME280;66983;51.438;5.438;2023-05-07T01:16:49;101453.91;;;15.72;79.42
77793;BME280;66983;51.438;5.438;2023-05-07T01:19:18;101449.25;;;15.75;79.63
77793;BME280;66983;51.438;5.438;2023-05-07T01:21:48;101439.75;;;15.68;80.06
77793;BME280;66983;51.438;5.438;2023-05-07T01:24:18;101442.06;;;15.76;79.61
77793;BME280;66983;51.438;5.438;2023-05-07T01:26:44;101438.44;;;15.77;79.59
77793;BME280;66983;51.438;5.438;2023-05-07T01:29:12;101429.66;;;15.73;79.31
77793;BME280;66983;51.438;5.438;2023-05-07T01:31:40;101429.66;;;15.73;79.15
77793;BME280;66983;51.438;5.438;2023-05-07T01:34:10;101423.56;;;15.70;80.08
77793;BME280;66983;51.438;5.438;2023-05-07T01:36:38;101434.22;;;15.71;80.00
77793;BME280;66983;51.438;5.438;2023-05-07T01:39:06;101434.53;;;15.65;80.02
77793;BME280;66983;51.438;5.438;2023-05-07T01:41:32;101429.00;;;15.68;79.25
77793;BME280;66983;51.438;5.438;2023-05-07T01:43:58;101429.88;;;15.69;79.19
77793;BME280;66983;51.438;5.438;2023-05-07T01:46:26;101426.63;;;15.62;80.09
77793;BME280;66983;51.438;5.438;2023-05-07T01:48:52;101423.94;;;15.62;80.36
77793;BME280;66983;51.438;5.438;2023-05-07T01:51:17;101429.38;;;15.60;80.14
77793;BME280;66983;51.438;5.438;2023-05-07T01:53:45;101425.81;;;15.60;80.39
77793;BME280;66983;51.438;5.438;2023-05-07T01:56:13;101418.47;;;15.64;80.17
77793;BME280;66983;51.438;5.438;2023-05-07T01:58:40;101416.66;;;15.64;80.02
77793;BME280;66983;51.438;5.438;2023-05-07T02:01:06;101418.41;;;15.65;80.12
77793;BME280;66983;51.438;5.438;2023-05-07T02:03:32;101416.75;;;15.63;79.65
77793;BME280;66983;51.438;5.438;2023-05-07T02:06:06;101419.28;;;15.66;79.99
77793;BME280;66983;51.438;5.438;2023-05-07T02:08:34;101412.31;;;15.61;80.50
77793;BME280;66983;51.438;5.438;2023-05-07T02:11:01;101418.00;;;15.55;80.40
77793;BME280;66983;51.438;5.438;2023-05-07T02:13:30;101417.88;;;15.58;80.42
77793;BME280;66983;51.438;5.438;2023-05-07T02:15:56;101419.69;;;15.58;80.38
77793;BME280;66983;51.438;5.438;2023-05-07T02:18:23;101428.75;;;15.55;80.54
77793;BME280;66983;51.438;5.438;2023-05-07T02:20:48;101423.66;;;15.49;80.81
77793;BME280;66983;51.438;5.438;2023-05-07T02:23:14;101426.34;;;15.49;80.58
77793;BME280;66983;51.438;5.438;2023-05-07T02:25:40;101428.16;;;15.49;81.43
77793;BME280;66983;51.438;5.438;2023-05-07T02:28:05;101441.75;;;15.46;81.80
77793;BME280;66983;51.438;5.438;2023-05-07T02:30:49;101438.34;;;15.42;82.15
77793;BME280;66983;51.438;5.438;2023-05-07T02:33:15;101433.69;;;15.46;81.08
77793;BME280;66983;51.438;5.438;2023-05-07T02:35:41;101433.84;;;15.43;81.98
77793;BME280;66983;51.438;5.438;2023-05-07T02:38:07;101440.16;;;15.42;81.68
77793;BME280;66983;51.438;5.438;2023-05-07T02:40:33;101426.00;;;15.38;82.25
77793;BME280;66983;51.438;5.438;2023-05-07T02:43:00;101432.25;;;15.39;81.64
77793;BME280;66983;51.438;5.438;2023-05-07T02:45:25;101429.25;;;15.45;81.64
77793;BME280;66983;51.438;5.438;2023-05-07T02:47:53;101429.41;;;15.42;81.61
77793;BME280;66983;51.438;5.438;2023-05-07T02:50:19;101434.63;;;15.45;81.20
77793;BME280;66983;51.438;5.438;2023-05-07T02:52:44;101436.38;;;15.46;82.30
77793;BME280;66983;51.438;5.438;2023-05-07T02:55:10;101437.16;;;15.48;81.92
77793;BME280;66983;51.438;5.438;2023-05-07T02:57:36;101436.44;;;15.44;81.84
77793;BME280;66983;51.438;5.438;2023-05-07T03:00:13;101434.47;;;15.48;81.93
77793;BME280;66983;51.438;5.438;2023-05-07T03:02:43;101427.22;;;15.50;81.74
77793;BME280;66983;51.438;5.438;2023-05-07T03:05:08;101431.56;;;15.52;81.51
77793;BME280;66983;51.438;5.438;2023-05-07T03:07:35;101431.94;;;15.45;80.98
77793;BME280;66983;51.438;5.438;2023-05-07T03:10:01;101434.63;;;15.45;81.85
77793;BME280;66983;51.438;5.438;2023-05-07T03:12:27;101433.03;;;15.41;81.94
77793;BME280;66983;51.438;5.438;2023-05-07T03:14:52;101420.84;;;15.34;82.50
77793;BME280;66983;51.438;5.438;2023-05-07T03:17:18;101424.97;;;15.41;82.04
77793;BME280;66983;51.438;5.438;2023-05-07T03:19:43;101420.56;;;15.40;82.47
77793;BME280;66983;51.438;5.438;2023-05-07T03:22:09;101424.97;;;15.41;82.26
77793;BME280;66983;51.438;5.438;2023-05-07T03:24:34;101416.91;;;15.41;82.39
77793;BME280;66983;51.438;5.438;2023-05-07T03:27:00;101419.53;;;15.42;82.50
77793;BME280;66983;51.438;5.438;2023-05-07T03:29:27;101420.69;;;15.37;82.54
77793;BME280;66983;51.438;5.438;2023-05-07T03:31:53;101417.94;;;15.38;82.84
77793;BME280;66983;51.438;5.438;2023-05-07T03:34:18;101413.44;;;15.39;82.09
77793;BME280;66983;51.438;5.438;2023-05-07T03:36:51;101411.53;;;15.41;82.39
77793;BME280;66983;51.438;5.438;2023-05-07T03:39:18;101410.53;;;15.43;81.71
77793;BME280;66983;51.438;5.438;2023-05-07T03:41:43;101404.44;;;15.40;82.10
77793;BME280;66983;51.438;5.438;2023-05-07T03:44:09;101410.81;;;15.37;82.44
77793;BME280;66983;51.438;5.438;2023-05-07T03:46:35;101406.72;;;15.30;82.96
77793;BME280;66983;51.438;5.438;2023-05-07T03:49:01;101412.91;;;15.32;83.27
77793;BME280;66983;51.438;5.438;2023-05-07T03:51:27;101412.78;;;15.34;82.80
77793;BME280;66983;51.438;5.438;2023-05-07T03:53:53;101411.84;;;15.35;82.61
77793;BME280;66983;51.438;5.438;2023-05-07T03:56:20;101414.38;;;15.38;82.93
77793;BME280;66983;51.438;5.438;2023-05-07T03:58:49;101416.91;;;15.41;81.59
77793;BME280;66983;51.438;5.438;2023-05-07T04:01:14;101419.91;;;15.35;83.04
77793;BME280;66983;51.438;5.438;2023-05-07T04:03:40;101418.97;;;15.36;82.85
77793;BME280;66983;51.438;5.438;2023-05-07T04:06:06;101424.41;;;15.34;82.94
77793;BME280;66983;51.438;5.438;2023-05-07T04:08:33;101429.88;;;15.33;82.63
77793;BME280;66983;51.438;5.438;2023-05-07T04:10:59;101436.97;;;15.34;83.07
77793;BME280;66983;51.438;5.438;2023-05-07T04:13:30;101430.91;;;15.30;82.81
77793;BME280;66983;51.438;5.438;2023-05-07T04:15:56;101440.63;;;15.33;83.06
77793;BME280;66983;51.438;5.438;2023-05-07T04:18:23;101438.63;;;15.36;82.62
77793;BME280;66983;51.438;5.438;2023-05-07T04:20:49;101444.88;;;15.37;82.62
77793;BME280;66983;51.438;5.438;2023-05-07T04:23:15;101444.25;;;15.32;82.26
77793;BME280;66983;51.438;5.438;2023-05-07T04:25:41;101450.50;;;15.32;82.06
77793;BME280;66983;51.438;5.438;2023-05-07T04:28:14;101456.75;;;15.33;82.92
77793;BME280;66983;51.438;5.438;2023-05-07T04:30:41;101457.75;;;15.30;83.46
77793;BME280;66983;51.438;5.438;2023-05-07T04:33:07;101457.69;;;15.32;83.04
77793;BME280;66983;51.438;5.438;2023-05-07T04:35:33;101443.13;;;15.36;82.65
77793;BME280;66983;51.438;5.438;2023-05-07T04:37:59;101444.94;;;15.35;82.93
77793;BME280;66983;51.438;5.438;2023-05-07T04:40:25;101435.94;;;15.36;82.81
77793;BME280;66983;51.438;5.438;2023-05-07T04:42:51;101448.28;;;15.40;83.74
77793;BME280;66983;51.438;5.438;2023-05-07T04:45:17;101433.03;;;15.41;82.54
77793;BME280;66983;51.438;5.438;2023-05-07T04:47:44;101450.81;;;15.43;83.09
77793;BME280;66983;51.438;5.438;2023-05-07T04:50:10;101450.75;;;15.45;82.19
77793;BME280;66983;51.438;5.438;2023-05-07T04:52:36;101449.00;;;15.44;82.79
77793;BME280;66983;51.438;5.438;2023-05-07T04:55:03;101444.81;;;15.38;82.69
77793;BME280;66983;51.438;5.438;2023-05-07T04:57:34;101450.19;;;15.38;82.77
77793;BME280;66983;51.438;5.438;2023-05-07T04:59:59;101460.63;;;15.44;82.54
77793;BME280;66983;51.438;5.438;2023-05-07T05:02:25;101461.50;;;15.45;82.66
77793;BME280;66983;51.438;5.438;2023-05-07T05:04:51;101464.84;;;15.50;82.04
77793;BME280;66983;51.438;5.438;2023-05-07T05:07:17;101447.84;;;15.49;82.35
77793;BME280;66983;51.438;5.438;2023-05-07T05:09:43;101453.13;;;15.51;81.49
77793;BME280;66983;51.438;5.438;2023-05-07T05:12:09;101455.97;;;15.48;81.84
77793;BME280;66983;51.438;5.438;2023-05-07T05:14:36;101460.25;;;15.52;81.92
77793;BME280;66983;51.438;5.438;2023-05-07T05:17:02;101467.38;;;15.53;81.85
77793;BME280;66983;51.438;5.438;2023-05-07T05:19:27;101465.63;;;15.52;82.48
77793;BME280;66983;51.438;5.438;2023-05-07T05:21:53;101459.31;;;15.53;82.35
77793;BME280;66983;51.438;5.438;2023-05-07T05:24:18;101460.97;;;15.55;81.79
77793;BME280;66983;51.438;5.438;2023-05-07T05:26:45;101462.69;;;15.58;81.87
77793;BME280;66983;51.438;5.438;2023-05-07T05:29:11;101463.44;;;15.60;82.02
77793;BME280;66983;51.438;5.438;2023-05-07T05:31:40;101468.06;;;15.58;82.24
77793;BME280;66983;51.438;5.438;2023-05-07T05:34:07;101469.94;;;15.56;82.36
77793;BME280;66983;51.438;5.438;2023-05-07T05:36:33;101477.94;;;15.57;82.19
77793;BME280;66983;51.438;5.438;2023-05-07T05:38:58;101481.38;;;15.59;81.91
77793;BME280;66983;51.438;5.438;2023-05-07T05:41:24;101471.44;;;15.61;81.69
77793;BME280;66983;51.438;5.438;2023-05-07T05:43:50;101485.59;;;15.65;81.76
77793;BME280;66983;51.438;5.438;2023-05-07T05:46:16;101481.97;;;15.66;81.74
77793;BME280;66983;51.438;5.438;2023-05-07T05:48:42;101487.19;;;15.69;81.70
77793;BME280;66983;51.438;5.438;2023-05-07T05:51:09;101481.72;;;15.71;81.75
77793;BME280;66983;51.438;5.438;2023-05-07T05:53:35;101487.91;;;15.73;81.91
77793;BME280;66983;51.438;5.438;2023-05-07T05:56:01;101484.28;;;15.74;81.54
77793;BME280;66983;51.438;5.438;2023-05-07T05:58:27;101477.06;;;15.74;80.87
77793;BME280;66983;51.438;5.438;2023-05-07T06:00:58;101482.31;;;15.77;81.86
77793;BME280;66983;51.438;5.438;2023-05-07T06:03:25;101477.72;;;15.79;81.51
77793;BME280;66983;51.438;5.438;2023-05-07T06:05:51;101474.88;;;15.82;81.55
77793;BME280;66983;51.438;5.438;2023-05-07T06:08:19;101477.56;;;15.82;81.66
77793;BME280;66983;51.438;5.438;2023-05-07T06:10:45;101484.63;;;15.85;81.78
77793;BME280;66983;51.438;5.438;2023-05-07T06:13:11;101486.25;;;15.87;81.10
77793;BME280;66983;51.438;5.438;2023-05-07T06:15:36;101477.25;;;15.88;81.00
77793;BME280;66983;51.438;5.438;2023-05-07T06:18:07;101478.09;;;15.89;81.25
77793;BME280;66983;51.438;5.438;2023-05-07T06:20:33;101483.47;;;15.89;81.27
77793;BME280;66983;51.438;5.438;2023-05-07T06:23:01;101489.59;;;15.92;80.51
77793;BME280;66983;51.438;5.438;2023-05-07T06:25:27;101481.44;;;15.94;80.46
77793;BME280;66983;51.438;5.438;2023-05-07T06:27:53;101487.69;;;15.94;81.80
77793;BME280;66983;51.438;5.438;2023-05-07T06:30:18;101489.28;;;15.99;81.08
77793;BME280;66983;51.438;5.438;2023-05-07T06:32:44;101490.00;;;16.02;81.15
77793;BME280;66983;51.438;5.438;2023-05-07T06:35:11;101488.19;;;16.03;81.41
77793;BME280;66983;51.438;5.438;2023-05-07T06:37:38;101485.50;;;16.03;81.06
77793;BME280;66983;51.438;5.438;2023-05-07T06:40:06;101488.03;;;16.06;80.29
77793;BME280;66983;51.438;5.438;2023-05-07T06:42:35;101490.72;;;16.06;80.58
77793;BME280;66983;51.438;5.438;2023-05-07T06:45:18;101495.00;;;16.10;81.00
77793;BME280;66983;51.438;5.438;2023-05-07T06:47:44;101486.91;;;16.10;80.46
77793;BME280;66983;51.438;5.438;2023-05-07T06:50:10;101497.69;;;16.10;81.11
77793;BME280;66983;51.438;5.438;2023-05-07T06:52:35;101505.63;;;16.11;80.77
77793;BME280;66983;51.438;5.438;2023-05-07T06:55:01;101506.44;;;16.13;79.63
77793;BME280;66983;51.438;5.438;2023-05-07T06:57:27;101495.75;;;16.12;80.37
77793;BME280;66983;51.438;5.438;2023-05-07T06:59:52;101501.53;;;16.21;79.51
77793;BME280;66983;51.438;5.438;2023-05-07T07:02:19;101503.19;;;16.24;81.18
77793;BME280;66983;51.438;5.438;2023-05-07T07:04:46;101518.25;;;16.28;80.14
77793;BME280;66983;51.438;5.438;2023-05-07T07:07:13;101510.97;;;16.30;80.23
77793;BME280;66983;51.438;5.438;2023-05-07T07:09:40;101514.59;;;16.29;80.54
77793;BME280;66983;51.438;5.438;2023-05-07T07:12:07;101511.84;;;16.31;80.56
77793;BME280;66983;51.438;5.438;2023-05-07T07:14:34;101516.19;;;16.33;80.43
77793;BME280;66983;51.438;5.438;2023-05-07T07:17:00;101516.97;;;16.35;79.63
77793;BME280;66983;51.438;5.438;2023-05-07T07:19:26;101515.03;;;16.37;80.39
77793;BME280;66983;51.438;5.438;2023-05-07T07:21:54;101513.94;;;16.41;80.98
77793;BME280;66983;51.438;5.438;2023-05-07T07:24:19;101503.03;;;16.44;80.12
77793;BME280;66983;51.438;5.438;2023-05-07T07:26:48;101507.38;;;16.47;80.65
77793;BME280;66983;51.438;5.438;2023-05-07T07:29:13;101510.69;;;16.52;79.56
77793;BME280;66983;51.438;5.438;2023-05-07T07:31:41;101524.06;;;16.53;79.05
77793;BME280;66983;51.438;5.438;2023-05-07T07:34:07;101515.22;;;16.51;80.11
77793;BME280;66983;51.438;5.438;2023-05-07T07:36:33;101524.06;;;16.53;77.91
77793;BME280;66983;51.438;5.438;2023-05-07T07:38:59;101524.88;;;16.55;79.09
77793;BME280;66983;51.438;5.438;2023-05-07T07:41:24;101525.56;;;16.59;78.93
77793;BME280;66983;51.438;5.438;2023-05-07T07:43:50;101528.03;;;16.63;78.43
77793;BME280;66983;51.438;5.438;2023-05-07T07:46:19;101529.53;;;16.69;78.36
77793;BME280;66983;51.438;5.438;2023-05-07T07:48:44;101532.00;;;16.74;77.79
77793;BME280;66983;51.438;5.438;2023-05-07T07:51:10;101525.41;;;16.79;77.84
77793;BME280;66983;51.438;5.438;2023-05-07T07:53:36;101524.28;;;16.83;77.46
77793;BME280;66983;51.438;5.438;2023-05-07T07:56:02;101516.06;;;16.86;77.91
77793;BME280;66983;51.438;5.438;2023-05-07T07:58:30;101525.00;;;16.87;78.54
77793;BME280;66983;51.438;5.438;2023-05-07T08:00:57;101522.97;;;16.90;78.28
77793;BME280;66983;51.438;5.438;2023-05-07T08:03:23;101523.53;;;16.97;77.20
77793;BME280;66983;51.438;5.438;2023-05-07T08:05:52;101517.81;;;17.03;76.88
77793;BME280;66983;51.438;5.438;2023-05-07T08:08:18;101513.84;;;17.10;78.25
77793;BME280;66983;51.438;5.438;2023-05-07T08:10:44;101516.00;;;17.19;77.71
77793;BME280;66983;51.438;5.438;2023-05-07T08:13:18;101518.53;;;17.22;77.56
77793;BME280;66983;51.438;5.438;2023-05-07T08:15:43;101524.44;;;17.29;76.53
77793;BME280;66983;51.438;5.438;2023-05-07T08:18:10;101522.28;;;17.36;77.13
77793;BME280;66983;51.438;5.438;2023-05-07T08:20:36;101528.47;;;17.38;76.65
77793;BME280;66983;51.438;5.438;2023-05-07T08:23:05;101532.44;;;17.46;76.83
77793;BME280;66983;51.438;5.438;2023-05-07T08:25:33;101531.75;;;17.58;76.40
77793;BME280;66983;51.438;5.438;2023-05-07T08:28:00;101536.91;;;17.63;75.49
77793;BME280;66983;51.438;5.438;2023-05-07T08:30:25;101534.94;;;17.67;75.72
77793;BME280;66983;51.438;5.438;2023-05-07T08:32:52;101538.28;;;17.70;75.09
77793;BME280;66983;51.438;5.438;2023-05-07T08:35:17;101536.22;;;17.75;75.73
77793;BME280;66983;51.438;5.438;2023-05-07T08:37:43;101545.16;;;17.76;76.21
77793;BME280;66983;51.438;5.438;2023-05-07T08:40:10;101545.94;;;17.78;76.29
77793;BME280;66983;51.438;5.438;2023-05-07T08:42:36;101545.59;;;17.84;75.15
77793;BME280;66983;51.438;5.438;2023-05-07T08:45:04;101547.44;;;17.83;76.25
77793;BME280;66983;51.438;5.438;2023-05-07T08:47:42;101548.03;;;17.88;76.50
77793;BME280;66983;51.438;5.438;2023-05-07T08:50:10;101549.78;;;17.89;76.72
77793;BME280;66983;51.438;5.438;2023-05-07T08:52:36;101545.03;;;17.93;76.65
77793;BME280;66983;51.438;5.438;2023-05-07T08:55:02;101552.53;;;18.04;77.12
77793;BME280;66983;51.438;5.438;2023-05-07T08:57:29;101540.41;;;18.11;74.84
77793;BME280;66983;51.438;5.438;2023-05-07T08:59:55;101549.13;;;18.16;75.90
77793;BME280;66983;51.438;5.438;2023-05-07T09:02:21;101553.34;;;18.20;75.46
77793;BME280;66983;51.438;5.438;2023-05-07T09:04:46;101550.28;;;18.26;74.86
77793;BME280;66983;51.438;5.438;2023-05-07T09:07:13;101549.16;;;18.30;73.76
77793;BME280;66983;51.438;5.438;2023-05-07T09:09:43;101553.59;;;18.31;73.99
77793;BME280;66983;51.438;5.438;2023-05-07T09:12:10;101557.84;;;18.35;74.30
77793;BME280;66983;51.438;5.438;2023-05-07T09:14:36;101550.25;;;18.42;74.32
77793;BME280;66983;51.438;5.438;2023-05-07T09:17:03;101557.88;;;18.49;74.00
77793;BME280;66983;51.438;5.438;2023-05-07T09:19:30;101555.94;;;18.51;73.80
77793;BME280;66983;51.438;5.438;2023-05-07T09:22:03;101548.63;;;18.53;72.76
77793;BME280;66983;51.438;5.438;2023-05-07T09:24:37;101550.38;;;18.54;73.16
77793;BME280;66983;51.438;5.438;2023-05-07T09:27:06;101558.13;;;18.60;74.43
77793;BME280;66983;51.438;5.438;2023-05-07T09:29:32;101546.56;;;18.73;72.82
77793;BME280;66983;51.438;5.438;2023-05-07T09:32:03;101559.50;;;18.82;73.58
77793;BME280;66983;51.438;5.438;2023-05-07T09:34:29;101554.09;;;18.82;73.21
77793;BME280;66983;51.438;5.438;2023-05-07T09:36:56;101555.56;;;18.87;74.24
77793;BME280;66983;51.438;5.438;2023-05-07T09:39:23;101553.13;;;18.97;74.03
77793;BME280;66983;51.438;5.438;2023-05-07T09:41:49;101549.47;;;18.98;72.09
77793;BME280;66983;51.438;5.438;2023-05-07T09:44:22;101559.63;;;19.09;71.70
77793;BME280;66983;51.438;5.438;2023-05-07T09:46:54;101552.56;;;19.06;71.81
77793;BME280;66983;51.438;5.438;2023-05-07T09:49:29;101561.66;;;19.05;71.85
77793;BME280;66983;51.438;5.438;2023-05-07T09:52:06;101554.22;;;19.09;71.23
77793;BME280;66983;51.438;5.438;2023-05-07T09:54:36;101556.06;;;19.08;71.60
77793;BME280;66983;51.438;5.438;2023-05-07T09:57:07;101557.59;;;19.12;71.97
77793;BME280;66983;51.438;5.438;2023-05-07T09:59:37;101557.22;;;19.18;71.50
77793;BME280;66983;51.438;5.438;2023-05-07T10:02:09;101549.66;;;19.23;70.72
77793;BME280;66983;51.438;5.438;2023-05-07T10:04:44;101538.84;;;19.23;70.56
77793;BME280;66983;51.438;5.438;2023-05-07T10:07:10;101549.84;;;19.35;70.36
77793;BME280;66983;51.438;5.438;2023-05-07T10:09:37;101543.97;;;19.42;69.81
77793;BME280;66983;51.438;5.438;2023-05-07T10:12:06;101553.03;;;19.55;70.06
77793;BME280;66983;51.438;5.438;2023-05-07T10:14:33;101550.81;;;19.62;69.96
77793;BME280;66983;51.438;5.438;2023-05-07T10:17:00;101556.97;;;19.64;71.33
77793;BME280;66983;51.438;5.438;2023-05-07T10:19:29;101550.88;;;19.75;70.02
77793;BME280;66983;51.438;5.438;2023-05-07T10:22:04;101551.72;;;19.75;67.97
77793;BME280;66983;51.438;5.438;2023-05-07T10:24:33;101547.84;;;19.79;69.11
77793;BME280;66983;51.438;5.438;2023-05-07T10:27:13;101549.75;;;19.91;69.08
77793;BME280;66983;51.438;5.438;2023-05-07T10:32:43;101554.13;;;20.07;68.18
77793;BME280;66983;51.438;5.438;2023-05-07T10:35:26;101548.19;;;20.14;66.19
77793;BME280;66983;51.438;5.438;2023-05-07T10:37:55;101550.81;;;20.16;67.28
77793;BME280;66983;51.438;5.438;2023-05-07T10:40:22;101557.56;;;20.23;68.16
77793;BME280;66983;51.438;5.438;2023-05-07T10:42:58;101555.16;;;20.31;65.90
77793;BME280;66983;51.438;5.438;2023-05-07T10:45:32;101560.00;;;20.40;66.00
77793;BME280;66983;51.438;5.438;2023-05-07T10:50:38;101562.50;;;20.43;64.42
77793;BME280;66983;51.438;5.438;2023-05-07T10:53:21;101561.31;;;20.47;64.14
77793;BME280;66983;51.438;5.438;2023-05-07T10:58:53;101561.13;;;20.50;63.66
77793;BME280;66983;51.438;5.438;2023-05-07T11:01:55;101561.22;;;20.49;63.48
77793;BME280;66983;51.438;5.438;2023-05-07T11:04:30;101560.25;;;20.50;64.54
77793;BME280;66983;51.438;5.438;2023-05-07T11:07:29;101562.59;;;20.54;64.55
77793;BME280;66983;51.438;5.438;2023-05-07T11:10:06;101560.25;;;20.62;63.04
77793;BME280;66983;51.438;5.438;2023-05-07T11:12:56;101561.56;;;20.70;63.05
77793;BME280;66983;51.438;5.438;2023-05-07T11:15:39;101558.19;;;20.66;64.01
77793;BME280;66983;51.438;5.438;2023-05-07T11:18:46;101553.84;;;20.63;63.00
77793;BME280;66983;51.438;5.438;2023-05-07T11:21:35;101556.66;;;20.62;64.00
77793;BME280;66983;51.438;5.438;2023-05-07T11:24:09;101556.13;;;20.57;62.97
77793;BME280;66983;51.438;5.438;2023-05-07T11:26:48;101563.94;;;20.61;64.15
77793;BME280;66983;51.438;5.438;2023-05-07T11:29:17;101554.63;;;20.65;63.76
77793;BME280;66983;51.438;5.438;2023-05-07T11:31:43;101553.84;;;20.63;62.57
77793;BME280;66983;51.438;5.438;2023-05-07T11:34:15;101547.25;;;20.67;64.38
77793;BME280;66983;51.438;5.438;2023-05-07T11:36:47;101549.84;;;20.82;63.92
77793;BME280;66983;51.438;5.438;2023-05-07T11:39:27;101549.63;;;20.85;62.63
77793;BME280;66983;51.438;5.438;2023-05-07T11:41:52;101550.59;;;20.84;62.49
77793;BME280;66983;51.438;5.438;2023-05-07T11:44:18;101548.56;;;20.87;62.85
77793;BME280;66983;51.438;5.438;2023-05-07T11:46:44;101554.41;;;20.94;63.50
77793;BME280;66983;51.438;5.438;2023-05-07T11:49:10;101552.47;;;20.96;62.85
77793;BME280;66983;51.438;5.438;2023-05-07T11:51:36;101544.97;;;20.99;61.87
77793;BME280;66983;51.438;5.438;2023-05-07T11:54:04;101550.50;;;20.98;61.82
77793;BME280;66983;51.438;5.438;2023-05-07T11:56:34;101561.16;;;21.01;61.90
77793;BME280;66983;51.438;5.438;2023-05-07T11:59:04;101543.03;;;20.89;61.83
77793;BME280;66983;51.438;5.438;2023-05-07T12:01:30;101555.72;;;20.88;62.25
77793;BME280;66983;51.438;5.438;2023-05-07T12:03:55;101556.69;;;20.87;60.75
77793;BME280;66983;51.438;5.438;2023-05-07T12:06:21;101543.66;;;20.80;61.08
77793;BME280;66983;51.438;5.438;2023-05-07T12:08:46;101544.66;;;20.79;61.77
77793;BME280;66983;51.438;5.438;2023-05-07T12:11:21;101543.16;;;20.75;62.51
77793;BME280;66983;51.438;5.438;2023-05-07T12:13:47;101543.56;;;20.69;61.81
77793;BME280;66983;51.438;5.438;2023-05-07T12:16:14;101547.47;;;20.64;62.52
77793;BME280;66983;51.438;5.438;2023-05-07T12:18:40;101557.31;;;20.65;62.91
77793;BME280;66983;51.438;5.438;2023-05-07T12:21:06;101569.13;;;20.64;63.11
77793;BME280;66983;51.438;5.438;2023-05-07T12:23:34;101591.22;;;20.58;63.33
77793;BME280;66983;51.438;5.438;2023-05-07T12:26:01;101616.88;;;20.40;63.05
77793;BME280;66983;51.438;5.438;2023-05-07T12:28:28;101636.34;;;19.77;65.39
77793;BME280;66983;51.438;5.438;2023-05-07T12:30:54;101653.47;;;19.21;68.26
77793;BME280;66983;51.438;5.438;2023-05-07T12:33:25;101676.66;;;18.49;72.51
77793;BME280;66983;51.438;5.438;2023-05-07T12:35:50;101664.19;;;17.85;76.08
77793;BME280;66983;51.438;5.438;2023-05-07T12:38:18;101668.63;;;17.20;74.82
77793;BME280;66983;51.438;5.438;2023-05-07T12:40:53;101651.72;;;16.84;80.34
77793;BME280;66983;51.438;5.438;2023-05-07T12:43:28;101645.97;;;16.55;80.61
77793;BME280;66983;51.438;5.438;2023-05-07T12:45:55;101642.94;;;16.44;84.44
77793;BME280;66983;51.438;5.438;2023-05-07T12:48:22;101644.03;;;16.40;84.04
77793;BME280;66983;51.438;5.438;2023-05-07T12:50:53;101633.78;;;16.31;87.22
77793;BME280;66983;51.438;5.438;2023-05-07T12:53:22;101632.03;;;16.30;85.49
77793;BME280;66983;51.438;5.438;2023-05-07T12:55:49;101639.16;;;16.31;86.43
77793;BME280;66983;51.438;5.438;2023-05-07T12:58:18;101650.13;;;16.26;84.72
77793;BME280;66983;51.438;5.438;2023-05-07T13:00:45;101644.53;;;16.31;86.22
77793;BME280;66983;51.438;5.438;2023-05-07T13:03:21;101661.94;;;16.41;88.58